createdAt,value
2018-11-12T00:02:11.185Z,41.15
2018-11-12T00:04:39.081Z,41.48
2018-11-12T00:07:06.807Z,43.35
2018-11-12T00:09:34.495Z,40.10
2018-11-12T00:12:02.195Z,41.50
2018-11-12T00:14:29.929Z,41.80
2018-11-12T00:16:57.664Z,40.33
2018-11-12T00:19:25.297Z,42.67
2018-11-12T00:21:52.963Z,43.27
2018-11-12T00:24:20.589Z,43.13
2018-11-12T00:26:48.289Z,43.13
2018-11-12T00:29:16.284Z,40.27
2018-11-12T00:31:43.931Z,43.00
2018-11-12T00:34:11.588Z,41.20
2018-11-12T00:36:39.229Z,44.00
2018-11-12T00:39:09.456Z,42.40
2018-11-12T00:41:37.080Z,43.80
2018-11-12T00:44:04.862Z,44.18
2018-11-12T00:46:32.442Z,46.02
2018-11-12T00:49:00.039Z,44.60
2018-11-12T00:51:27.664Z,42.43
2018-11-12T00:53:55.286Z,42.50
2018-11-12T00:56:22.914Z,43.78
2018-11-12T00:58:51.033Z,42.30
2018-11-12T01:01:18.676Z,41.80
2018-11-12T01:03:46.284Z,39.10
2018-11-12T01:06:13.909Z,41.60
2018-11-12T01:08:41.665Z,37.90
2018-11-12T01:11:09.725Z,41.70
2018-11-12T01:13:37.322Z,39.53
2018-11-12T01:16:05.563Z,42.20
2018-11-12T01:18:33.631Z,41.70
2018-11-12T01:21:01.214Z,39.73
2018-11-12T01:23:28.784Z,41.80
2018-11-12T01:25:56.445Z,43.30
2018-11-12T01:28:24.077Z,40.87
2018-11-12T01:30:55.206Z,38.90
2018-11-12T01:33:22.826Z,38.57
2018-11-12T01:35:50.476Z,39.20
2018-11-12T01:38:18.130Z,40.65
2018-11-12T01:40:45.792Z,41.13
2018-11-12T01:43:13.438Z,37.87
2018-11-12T01:45:41.042Z,39.23
2018-11-12T01:48:08.621Z,39.75
2018-11-12T01:50:42.964Z,38.57
2018-11-12T01:53:10.561Z,40.80
2018-11-12T01:55:38.134Z,39.95
2018-11-12T01:58:05.782Z,39.03
2018-11-12T02:00:33.468Z,38.90
2018-11-12T02:03:01.066Z,39.23
2018-11-12T02:05:28.653Z,39.40
2018-11-12T02:07:56.267Z,42.30
2018-11-12T02:10:23.874Z,38.77
2018-11-12T02:12:51.665Z,38.53
2018-11-12T02:15:20.382Z,36.40
2018-11-12T02:17:48.570Z,37.75
2018-11-12T02:20:17.348Z,38.83
2018-11-12T02:22:46.041Z,38.10
2018-11-12T02:25:14.258Z,38.00
2018-11-12T02:27:41.887Z,40.03
2018-11-12T02:30:14.234Z,37.93
2018-11-12T02:32:41.954Z,39.80
2018-11-12T02:35:10.090Z,37.60
2018-11-12T02:37:38.240Z,37.30
2018-11-12T02:40:08.253Z,39.90
2018-11-12T02:42:35.921Z,39.27
2018-11-12T02:45:03.809Z,36.65
2018-11-12T02:47:31.632Z,35.60
2018-11-12T02:49:59.487Z,40.38
2018-11-12T02:52:27.385Z,38.80
2018-11-12T02:54:55.157Z,40.70
2018-11-12T02:57:23.025Z,39.53
2018-11-12T02:59:51.031Z,37.75
2018-11-12T03:02:18.641Z,40.80
2018-11-12T03:04:46.277Z,45.27
2018-11-12T03:07:14.107Z,37.77
2018-11-12T03:09:41.722Z,39.83
2018-11-12T03:12:09.452Z,40.97
2018-11-12T03:14:37.092Z,40.48
2018-11-12T03:17:05.071Z,43.63
2018-11-12T03:19:32.690Z,41.23
2018-11-12T03:22:00.740Z,43.00
2018-11-12T03:24:28.496Z,40.73
2018-11-12T03:26:56.180Z,40.07
2018-11-12T03:29:23.840Z,43.00
2018-11-12T03:31:51.500Z,41.77
2018-11-12T03:34:19.586Z,41.07
2018-11-12T03:36:47.262Z,41.02
2018-11-12T03:39:14.924Z,39.30
2018-11-12T03:41:42.686Z,39.60
2018-11-12T03:44:10.304Z,41.55
2018-11-12T03:46:38.030Z,40.30
2018-11-12T03:49:05.700Z,39.00
2018-11-12T03:51:33.388Z,38.70
2018-11-12T03:54:01.072Z,39.63
2018-11-12T03:56:28.717Z,42.10
2018-11-12T03:58:56.314Z,37.88
2018-11-12T04:01:28.668Z,41.33
2018-11-12T04:03:56.332Z,42.30
2018-11-12T04:06:23.911Z,38.17
2018-11-12T04:08:51.548Z,41.53
2018-11-12T04:11:19.521Z,39.40
2018-11-12T04:13:47.251Z,39.63
2018-11-12T04:16:14.868Z,43.60
2018-11-12T04:18:42.540Z,39.60
2018-11-12T04:21:10.175Z,39.20
2018-11-12T04:23:37.831Z,38.35
2018-11-12T04:26:05.497Z,39.13
2018-11-12T04:28:33.460Z,40.10
2018-11-12T04:31:01.096Z,38.20
2018-11-12T04:33:28.790Z,38.77
2018-11-12T04:35:56.491Z,39.65
2018-11-12T04:38:24.089Z,35.00
2018-11-12T04:40:51.713Z,35.75
2018-11-12T04:43:19.411Z,38.35
2018-11-12T04:45:47.035Z,36.37
2018-11-12T04:48:14.686Z,38.10
2018-11-12T04:50:42.325Z,36.53
2018-11-12T04:53:09.921Z,37.55
2018-11-12T04:55:37.542Z,35.13
2018-11-12T04:58:05.137Z,33.97
2018-11-12T05:00:33.080Z,35.92
2018-11-12T05:03:00.709Z,35.80
2018-11-12T05:05:28.522Z,34.80
2018-11-12T05:07:56.205Z,36.40
2018-11-12T05:10:24.920Z,34.35
2018-11-12T05:12:52.964Z,32.87
2018-11-12T05:15:21.498Z,33.30
2018-11-12T05:17:49.137Z,34.30
2018-11-12T05:20:18.244Z,33.15
2018-11-12T05:22:45.877Z,32.87
2018-11-12T05:25:13.420Z,31.05
2018-11-12T05:27:41.026Z,32.00
2018-11-12T05:30:12.571Z,32.10
2018-11-12T05:32:40.305Z,30.73
2018-11-12T05:35:07.899Z,27.20
2018-11-12T05:37:35.872Z,28.80
2018-11-12T05:40:05.661Z,28.35
2018-11-12T05:42:33.301Z,30.97
2018-11-12T05:45:00.963Z,31.20
2018-11-12T05:47:28.607Z,31.70
2018-11-12T05:49:56.247Z,31.20
2018-11-12T05:52:23.901Z,30.80
2018-11-12T05:54:51.501Z,29.60
2018-11-12T05:57:19.441Z,31.15
2018-11-12T05:59:47.085Z,31.37
2018-11-12T06:02:14.630Z,30.93
2018-11-12T06:04:42.296Z,29.37
2018-11-12T06:07:09.928Z,32.03
2018-11-12T06:09:37.581Z,31.42
2018-11-12T06:12:05.672Z,31.93
2018-11-12T06:14:33.295Z,29.30
2018-11-12T06:17:00.874Z,28.52
2018-11-12T06:19:28.561Z,31.27
2018-11-12T06:21:56.150Z,33.20
2018-11-12T06:24:23.739Z,31.43
2018-11-12T06:26:51.404Z,29.45
2018-11-12T06:29:19.024Z,32.58
2018-11-12T06:31:46.607Z,30.20
2018-11-12T06:34:14.268Z,28.77
2018-11-12T06:36:41.902Z,30.08
2018-11-12T06:39:09.764Z,28.27
2018-11-12T06:41:37.528Z,26.60
2018-11-12T06:44:05.894Z,27.90
2018-11-12T06:46:33.590Z,28.10
2018-11-12T06:49:01.236Z,27.17
2018-11-12T06:51:28.915Z,27.30
2018-11-12T06:53:56.578Z,29.30
2018-11-12T06:56:24.186Z,29.50
2018-11-12T06:58:51.741Z,27.53
2018-11-12T07:01:19.314Z,27.58
2018-11-12T07:03:46.981Z,27.80
2018-11-12T07:06:14.788Z,28.20
2018-11-12T07:08:42.747Z,27.73
2018-11-12T07:11:10.385Z,26.53
2018-11-12T07:13:38.169Z,24.70
2018-11-12T07:16:06.133Z,25.02
2018-11-12T07:18:33.796Z,27.23
2018-11-12T07:21:01.426Z,24.65
2018-11-12T07:23:29.018Z,24.80
2018-11-12T07:25:56.625Z,24.30
2018-11-12T07:28:24.165Z,25.90
2018-11-12T07:30:51.860Z,24.27
2018-11-12T07:33:19.433Z,26.53
2018-11-12T07:35:47.021Z,22.50
2018-11-12T07:38:14.739Z,23.67
2018-11-12T07:40:42.382Z,24.30
2018-11-12T07:43:09.998Z,24.07
2018-11-12T07:45:37.621Z,23.47
2018-11-12T07:48:05.267Z,21.45
2018-11-12T07:50:32.914Z,23.40
2018-11-12T07:53:00.506Z,23.20
2018-11-12T07:55:28.570Z,20.57
2018-11-12T07:57:57.026Z,21.90
2018-11-12T08:00:26.985Z,21.17
2018-11-12T08:02:59.215Z,20.90
2018-11-12T08:05:26.875Z,22.37
2018-11-12T08:07:54.567Z,21.27
2018-11-12T08:10:22.199Z,21.30
2018-11-12T08:12:49.801Z,20.70
2018-11-12T08:15:18.703Z,18.97
2018-11-12T08:17:46.462Z,19.90
2018-11-12T08:20:15.381Z,20.37
2018-11-12T08:22:44.222Z,19.90
2018-11-12T08:25:12.227Z,19.33
2018-11-12T08:27:40.332Z,20.87
2018-11-12T08:30:11.609Z,19.10
2018-11-12T08:32:39.140Z,20.10
2018-11-12T08:35:06.806Z,18.25
2018-11-12T08:37:34.468Z,18.40
2018-11-12T08:40:02.615Z,19.60
2018-11-12T08:42:31.509Z,18.62
2018-11-12T08:44:59.154Z,17.00
2018-11-12T08:47:26.750Z,16.50
2018-11-12T08:49:54.368Z,18.05
2018-11-12T08:52:22.041Z,17.53
2018-11-12T08:54:49.615Z,16.70
2018-11-12T08:57:17.187Z,17.37
2018-11-12T08:59:44.872Z,15.30
2018-11-12T09:02:12.449Z,15.57
2018-11-12T09:04:40.061Z,14.73
2018-11-12T09:07:07.812Z,14.98
2018-11-12T09:09:35.427Z,14.07
2018-11-12T09:12:03.002Z,14.20
2018-11-12T09:14:30.667Z,13.62
2018-11-12T09:16:58.290Z,11.90
2018-11-12T09:19:25.911Z,13.47
2018-11-12T09:21:53.603Z,12.95
2018-11-12T09:24:21.464Z,13.18
2018-11-12T09:26:49.144Z,12.85
2018-11-12T09:29:16.792Z,14.60
2018-11-12T09:31:44.478Z,13.47
2018-11-12T09:34:12.075Z,13.53
2018-11-12T09:36:39.829Z,14.18
2018-11-12T09:39:09.659Z,13.13
2018-11-12T09:41:37.342Z,13.20
2018-11-12T09:44:05.357Z,12.40
2018-11-12T09:46:32.961Z,13.43
2018-11-12T09:49:00.682Z,14.28
2018-11-12T09:51:28.348Z,13.93
2018-11-12T09:53:56.088Z,14.57
2018-11-12T09:56:24.146Z,15.37
2018-11-12T09:58:51.730Z,14.50
2018-11-12T10:01:19.985Z,13.57
2018-11-12T10:03:48.373Z,13.50
2018-11-12T10:06:16.201Z,13.80
2018-11-12T10:08:44.501Z,13.53
2018-11-12T10:11:13.272Z,11.70
2018-11-12T10:13:40.858Z,11.90
2018-11-12T10:16:09.021Z,10.60
2018-11-12T10:18:33.766Z,10.10
2018-11-12T10:21:01.478Z,10.33
2018-11-12T10:23:29.125Z,9.70
2018-11-12T10:25:56.744Z,9.95
2018-11-12T10:28:24.426Z,9.13
2018-11-12T10:30:52.164Z,10.87
2018-11-12T10:33:20.003Z,10.20
2018-11-12T10:35:47.669Z,11.12
2018-11-12T10:38:15.342Z,9.30
2018-11-12T10:40:42.999Z,9.10
2018-11-12T10:43:10.691Z,9.20
2018-11-12T10:45:38.395Z,9.13
2018-11-12T10:48:06.607Z,8.25
2018-11-12T10:50:34.281Z,8.23
2018-11-12T10:53:02.025Z,8.00
2018-11-12T10:55:29.973Z,7.30
2018-11-12T10:57:57.557Z,7.33
2018-11-12T11:00:35.372Z,7.83
2018-11-12T11:03:12.082Z,6.07
2018-11-12T11:05:40.932Z,7.23
2018-11-12T11:08:08.664Z,6.77
2018-11-12T11:10:36.353Z,6.23
2018-11-12T11:13:05.158Z,6.30
2018-11-12T11:15:33.697Z,7.03
2018-11-12T11:18:01.286Z,6.43
2018-11-12T11:20:29.438Z,5.72
2018-11-12T11:23:00.581Z,5.63
2018-11-12T11:25:28.382Z,6.67
2018-11-12T11:27:56.012Z,6.10
2018-11-12T11:30:24.062Z,6.05
2018-11-12T11:32:51.706Z,6.67
2018-11-12T11:35:20.136Z,7.05
2018-11-12T11:37:47.789Z,6.63
2018-11-12T11:40:16.948Z,6.13
2018-11-12T11:42:44.563Z,5.83
2018-11-12T11:45:13.262Z,5.70
2018-11-12T11:47:41.530Z,6.63
2018-11-12T11:50:11.409Z,6.73
2018-11-12T11:52:39.003Z,5.10
2018-11-12T11:55:09.023Z,6.40
2018-11-12T11:57:36.727Z,6.30
2018-11-12T12:00:08.628Z,6.57
2018-11-12T12:02:36.561Z,5.90
2018-11-12T12:05:05.974Z,6.20
2018-11-12T12:07:34.280Z,6.67
2018-11-12T12:10:01.979Z,6.43
2018-11-12T12:12:29.585Z,7.63
2018-11-12T12:14:57.186Z,6.87
2018-11-12T12:17:24.856Z,7.17
2018-11-12T12:19:52.620Z,7.50
2018-11-12T12:22:20.185Z,6.63
2018-11-12T12:24:47.974Z,6.90
2018-11-12T12:27:15.600Z,6.60
2018-11-12T12:29:43.292Z,9.30
2018-11-12T12:32:10.949Z,7.47
2018-11-12T12:34:38.558Z,8.50
2018-11-12T12:37:06.232Z,7.70
2018-11-12T12:39:33.883Z,7.30
2018-11-12T12:42:01.549Z,6.97
2018-11-12T12:44:31.055Z,7.25
2018-11-12T12:46:58.591Z,9.00
2018-11-12T12:49:26.315Z,9.00
2018-11-12T12:51:53.860Z,9.20
2018-11-12T12:54:21.763Z,9.90
2018-11-12T12:56:49.505Z,9.03
2018-11-12T12:59:17.081Z,8.67
2018-11-12T13:01:44.784Z,8.53
2018-11-12T13:04:12.416Z,9.55
2018-11-12T13:06:40.090Z,9.33
2018-11-12T13:09:09.008Z,8.67
2018-11-12T13:11:36.624Z,9.03
2018-11-12T13:14:04.518Z,8.80
2018-11-12T13:16:32.389Z,8.67
2018-11-12T13:18:59.980Z,8.50
2018-11-12T13:21:27.720Z,8.50
2018-11-12T13:23:55.268Z,9.30
2018-11-12T13:26:22.891Z,8.77
2018-11-12T13:28:50.912Z,9.20
2018-11-12T13:31:19.228Z,9.40
2018-11-12T13:33:46.844Z,9.20
2018-11-12T13:36:14.587Z,8.70
2018-11-12T13:38:42.270Z,9.40
2018-11-12T13:41:09.914Z,8.70
2018-11-12T13:43:37.592Z,9.60
2018-11-12T13:46:05.652Z,9.87
2018-11-12T13:48:33.530Z,10.13
2018-11-12T13:51:01.258Z,9.90
2018-11-12T13:53:29.247Z,9.80
2018-11-12T13:55:56.824Z,9.67
2018-11-12T13:58:24.540Z,10.93
2018-11-12T14:00:52.219Z,11.93
2018-11-12T14:03:19.826Z,9.83
2018-11-12T14:05:47.488Z,11.03
2018-11-12T14:08:15.152Z,11.48
2018-11-12T14:10:42.898Z,11.43
2018-11-12T14:13:11.478Z,12.50
2018-11-12T14:15:39.688Z,12.00
2018-11-12T14:18:07.318Z,12.75
2018-11-12T14:20:35.429Z,14.17
2018-11-12T14:23:02.963Z,13.67
2018-11-12T14:25:30.539Z,13.50
2018-11-12T14:27:58.501Z,13.87
2018-11-12T14:30:28.142Z,13.77
2018-11-12T14:32:56.065Z,13.90
2018-11-12T14:35:23.991Z,13.17
2018-11-12T14:37:51.597Z,14.90
2018-11-12T14:40:19.394Z,15.48
2018-11-12T14:42:47.308Z,16.40
2018-11-12T14:45:16.171Z,15.98
2018-11-12T14:47:44.234Z,15.30
2018-11-12T14:50:11.951Z,14.57
2018-11-12T14:52:39.961Z,14.80
2018-11-12T14:55:10.251Z,15.87
2018-11-12T14:57:37.971Z,17.17
2018-11-12T15:00:11.523Z,16.90
2018-11-12T15:02:39.149Z,18.17
2018-11-12T15:05:06.928Z,18.60
2018-11-12T15:07:34.562Z,17.02
2018-11-12T15:10:02.623Z,17.23
2018-11-12T15:12:30.287Z,18.32
2018-11-12T15:14:58.005Z,18.87
2018-11-12T15:17:25.689Z,20.53
2018-11-12T15:19:53.284Z,19.90
2018-11-12T15:22:20.899Z,20.20
2018-11-12T15:24:48.548Z,21.62
2018-11-12T15:27:16.232Z,21.00
2018-11-12T15:29:44.001Z,24.43
2018-11-12T15:32:11.664Z,21.03
2018-11-12T15:34:40.328Z,23.52
2018-11-12T15:37:08.193Z,22.60
2018-11-12T15:39:35.706Z,24.43
2018-11-12T15:42:03.320Z,23.67
2018-11-12T15:44:30.954Z,24.70
2018-11-12T15:46:58.554Z,24.00
2018-11-12T15:49:26.176Z,25.00
2018-11-12T15:51:53.904Z,23.73
2018-11-12T15:54:21.539Z,25.33
2018-11-12T15:56:49.380Z,23.67
2018-11-12T15:59:16.994Z,26.17
2018-11-12T16:01:44.655Z,24.00
2018-11-12T16:04:12.209Z,23.00
2018-11-12T16:06:39.864Z,22.97
2018-11-12T16:09:11.545Z,22.58
2018-11-12T16:11:39.107Z,25.17
2018-11-12T16:14:07.202Z,25.10
2018-11-12T16:16:34.958Z,22.57
2018-11-12T16:19:03.038Z,25.08
2018-11-12T16:21:30.803Z,27.20
2018-11-12T16:23:58.430Z,26.80
2018-11-12T16:26:26.156Z,27.67
2018-11-12T16:28:53.731Z,28.07
2018-11-12T16:31:21.859Z,27.77
2018-11-12T16:33:49.519Z,25.60
2018-11-12T16:36:17.191Z,28.20
2018-11-12T16:38:44.789Z,27.13
2018-11-12T16:41:12.503Z,28.02
2018-11-12T16:43:40.197Z,25.20
2018-11-12T16:46:07.883Z,29.07
2018-11-12T16:48:35.510Z,27.60
2018-11-12T16:51:03.131Z,27.20
2018-11-12T16:53:30.746Z,28.80
2018-11-12T16:55:58.315Z,29.07
2018-11-12T16:58:25.893Z,29.37
2018-11-12T17:00:54.139Z,29.10
2018-11-12T17:03:21.783Z,27.65
2018-11-12T17:05:49.442Z,29.42
2018-11-12T17:08:17.135Z,30.33
2018-11-12T17:10:44.829Z,30.70
2018-11-12T17:13:12.460Z,31.57
2018-11-12T17:15:40.158Z,29.32
2018-11-12T17:18:07.853Z,29.10
2018-11-12T17:20:35.536Z,28.93
2018-11-12T17:23:03.331Z,29.77
2018-11-12T17:25:30.876Z,31.47
2018-11-12T17:27:58.573Z,30.40
2018-11-12T17:30:26.312Z,32.17
2018-11-12T17:32:54.226Z,29.40
2018-11-12T17:35:22.532Z,31.90
2018-11-12T17:37:50.372Z,29.47
2018-11-12T17:40:20.117Z,29.90
2018-11-12T17:42:48.569Z,30.47
2018-11-12T17:45:17.468Z,30.43
2018-11-12T17:47:46.444Z,29.40
2018-11-12T17:50:14.077Z,31.23
2018-11-12T17:52:42.106Z,29.85
2018-11-12T17:55:10.241Z,28.53
2018-11-12T17:57:38.219Z,29.00
2018-11-12T18:00:19.931Z,27.70
2018-11-12T18:02:48.429Z,28.90
2018-11-12T18:05:16.033Z,27.87
2018-11-12T18:07:43.847Z,29.40
2018-11-12T18:10:12.883Z,29.00
2018-11-12T18:12:40.472Z,27.70
2018-11-12T18:15:14.057Z,30.15
2018-11-12T18:17:42.321Z,28.20
2018-11-12T18:20:13.575Z,32.10
2018-11-12T18:22:41.273Z,29.47
2018-11-12T18:25:09.358Z,30.77
2018-11-12T18:27:37.517Z,29.20
2018-11-12T18:30:10.984Z,31.33
2018-11-12T18:32:38.692Z,31.20
2018-11-12T18:35:06.627Z,32.67
2018-11-12T18:37:34.713Z,32.17
2018-11-12T18:40:02.352Z,32.20
2018-11-12T18:42:29.931Z,30.92
2018-11-12T18:44:57.587Z,33.83
2018-11-12T18:47:25.219Z,33.63
2018-11-12T18:49:52.975Z,35.10
2018-11-12T18:52:20.691Z,31.33
2018-11-12T18:54:48.290Z,33.13
2018-11-12T18:57:15.945Z,32.93
2018-11-12T18:59:43.534Z,36.90
2018-11-12T19:02:11.429Z,33.17
2018-11-12T19:04:39.033Z,31.77
2018-11-12T19:07:07.089Z,33.40
2018-11-12T19:09:34.694Z,33.00
2018-11-12T19:12:02.340Z,34.80
2018-11-12T19:14:29.981Z,32.83
2018-11-12T19:16:57.583Z,30.07
2018-11-12T19:19:25.225Z,33.30
2018-11-12T19:21:52.934Z,35.38
2018-11-12T19:24:20.805Z,33.28
2018-11-12T19:26:48.435Z,34.25
2018-11-12T19:29:16.034Z,35.57
2018-11-12T19:31:43.784Z,35.13
2018-11-12T19:34:11.390Z,34.20
2018-11-12T19:36:39.066Z,34.38
2018-11-12T19:39:07.866Z,35.53
2018-11-12T19:41:35.533Z,35.50
2018-11-12T19:44:03.248Z,32.37
2018-11-12T19:46:30.894Z,34.38
2018-11-12T19:48:58.544Z,33.83
2018-11-12T19:51:26.289Z,33.33
2018-11-12T19:53:53.842Z,34.30
2018-11-12T19:56:21.538Z,32.63
2018-11-12T19:58:49.232Z,32.30
2018-11-12T20:01:16.859Z,31.10
2018-11-12T20:03:44.585Z,32.17
2018-11-12T20:06:12.286Z,29.93
2018-11-12T20:08:40.389Z,28.87
2018-11-12T20:11:08.050Z,28.80
2018-11-12T20:13:35.668Z,27.93
2018-11-12T20:16:03.440Z,28.42
2018-11-12T20:18:31.041Z,27.13
2018-11-12T20:20:59.019Z,29.80
2018-11-12T20:23:26.595Z,28.10
2018-11-12T20:25:54.228Z,29.00
2018-11-12T20:28:21.918Z,30.37
2018-11-12T20:30:49.514Z,27.05
2018-11-12T20:33:17.426Z,28.17
2018-11-12T20:35:45.027Z,28.10
2018-11-12T20:38:12.708Z,26.33
2018-11-12T20:40:40.624Z,26.00
2018-11-12T20:43:08.170Z,28.20
2018-11-12T20:45:35.766Z,27.80
2018-11-12T20:48:03.624Z,26.47
2018-11-12T20:50:31.223Z,27.97
2018-11-12T20:52:58.884Z,26.40
2018-11-12T20:55:26.559Z,28.30
2018-11-12T20:57:54.589Z,30.23
2018-11-12T21:00:23.640Z,30.00
2018-11-12T21:02:52.125Z,29.50
2018-11-12T21:05:22.007Z,29.63
2018-11-12T21:07:49.650Z,29.60
2018-11-12T21:10:18.160Z,28.52
2018-11-12T21:12:46.496Z,27.73
2018-11-12T21:15:15.215Z,32.27
2018-11-12T21:17:43.194Z,29.43
2018-11-12T21:20:13.931Z,28.07
2018-11-12T21:22:41.607Z,30.40
2018-11-12T21:25:10.488Z,28.10
2018-11-12T21:27:38.453Z,29.57
2018-11-12T21:30:10.100Z,29.87
2018-11-12T21:32:37.786Z,28.70
2018-11-12T21:35:06.448Z,26.80
2018-11-12T21:37:34.550Z,26.83
2018-11-12T21:40:02.399Z,25.73
2018-11-12T21:42:29.994Z,26.77
2018-11-12T21:44:57.582Z,27.65
2018-11-12T21:47:25.126Z,26.50
2018-11-12T21:49:52.810Z,29.80
2018-11-12T21:52:20.404Z,29.20
2018-11-12T21:54:48.138Z,28.55
2018-11-12T21:57:15.842Z,30.97
2018-11-12T21:59:43.573Z,28.43
2018-11-12T22:02:11.187Z,29.23
2018-11-12T22:04:38.765Z,29.37
2018-11-12T22:07:06.358Z,28.15
2018-11-12T22:09:33.933Z,29.40
2018-11-12T22:12:01.589Z,29.32
2018-11-12T22:14:29.213Z,28.50
2018-11-12T22:16:56.801Z,28.47
2018-11-12T22:19:24.415Z,28.17
2018-11-12T22:21:51.949Z,28.57
2018-11-12T22:24:19.598Z,27.40
2018-11-12T22:26:47.245Z,28.37
2018-11-12T22:29:14.933Z,27.30
2018-11-12T22:31:42.626Z,28.50
2018-11-12T22:34:10.289Z,26.97
2018-11-12T22:36:38.004Z,27.80
2018-11-12T22:39:07.707Z,27.58
2018-11-12T22:41:35.394Z,27.73
2018-11-12T22:44:03.051Z,29.30
2018-11-12T22:46:30.750Z,29.20
2018-11-12T22:48:58.318Z,27.00
2018-11-12T22:51:25.914Z,27.20
2018-11-12T22:53:53.532Z,26.57
2018-11-12T22:56:21.173Z,25.35
2018-11-12T22:58:48.815Z,27.40
2018-11-12T23:01:16.446Z,27.80
2018-11-12T23:03:44.392Z,26.77
2018-11-12T23:06:12.527Z,25.33
2018-11-12T23:08:41.044Z,26.00
2018-11-12T23:11:08.764Z,26.10
2018-11-12T23:13:36.633Z,25.20
2018-11-12T23:16:04.238Z,25.50
2018-11-12T23:18:32.050Z,26.33
2018-11-12T23:20:59.686Z,24.63
2018-11-12T23:23:27.229Z,24.20
2018-11-12T23:25:54.811Z,25.32
2018-11-12T23:28:22.426Z,22.43
2018-11-12T23:30:50.001Z,23.87
2018-11-12T23:33:17.593Z,21.90
2018-11-12T23:35:45.229Z,23.30
2018-11-12T23:38:12.832Z,20.67
2018-11-12T23:40:40.471Z,22.80
2018-11-12T23:43:08.084Z,21.57
2018-11-12T23:45:36.004Z,21.60
2018-11-12T23:48:03.885Z,20.67
2018-11-12T23:50:31.500Z,23.10
2018-11-12T23:52:59.088Z,22.00
2018-11-12T23:55:26.675Z,23.22
2018-11-12T23:57:54.264Z,22.83
